createdAt,value
2019-01-10T00:00:26.672Z,9.57
2019-01-10T00:03:02.220Z,8.97
2019-01-10T00:05:30.726Z,9.90
2019-01-10T00:07:59.391Z,11.17
2019-01-10T00:10:27.872Z,9.60
2019-01-10T00:12:56.164Z,9.27
2019-01-10T00:15:24.835Z,9.27
2019-01-10T00:17:53.508Z,8.70
2019-01-10T00:20:22.324Z,8.20
2019-01-10T00:22:50.886Z,8.07
2019-01-10T00:25:19.580Z,8.50
2019-01-10T00:27:48.414Z,9.00
2019-01-10T00:30:17.674Z,9.47
2019-01-10T00:32:45.958Z,9.60
2019-01-10T00:35:14.746Z,8.80
2019-01-10T00:37:43.409Z,7.90
2019-01-10T00:40:14.275Z,8.00
2019-01-10T00:42:49.237Z,8.30
2019-01-10T00:45:14.718Z,8.10
2019-01-10T00:47:43.269Z,7.50
2019-01-10T00:50:17.519Z,7.10
2019-01-10T00:52:45.936Z,7.17
2019-01-10T00:55:14.657Z,6.90
2019-01-10T00:57:43.356Z,7.20
2019-01-10T01:00:18.081Z,7.80
2019-01-10T01:02:46.671Z,7.27
2019-01-10T01:05:16.257Z,8.57
2019-01-10T01:07:46.089Z,8.27
2019-01-10T01:10:17.428Z,8.30
2019-01-10T01:12:46.124Z,7.40
2019-01-10T01:15:15.359Z,8.50
2019-01-10T01:17:44.090Z,8.17
2019-01-10T01:20:13.837Z,8.40
2019-01-10T01:22:42.492Z,7.80
2019-01-10T01:25:11.600Z,8.03
2019-01-10T01:27:39.996Z,7.20
2019-01-10T01:30:14.030Z,7.90
2019-01-10T01:32:42.784Z,7.23
2019-01-10T01:35:11.637Z,8.47
2019-01-10T01:37:41.354Z,7.40
2019-01-10T01:40:10.575Z,7.67
2019-01-10T01:42:38.825Z,7.33
2019-01-10T01:45:08.731Z,7.40
2019-01-10T01:47:37.550Z,7.60
2019-01-10T01:50:09.430Z,7.90
2019-01-10T01:52:38.193Z,8.40
2019-01-10T01:55:07.444Z,8.17
2019-01-10T01:57:37.185Z,7.67
2019-01-10T02:00:09.793Z,7.60
2019-01-10T02:02:38.437Z,7.83
2019-01-10T02:05:08.260Z,8.63
2019-01-10T02:07:37.685Z,9.00
2019-01-10T02:10:10.530Z,8.03
2019-01-10T02:12:39.146Z,8.60
2019-01-10T02:15:08.095Z,7.83
2019-01-10T02:17:36.695Z,7.60
2019-01-10T02:20:06.195Z,7.57
2019-01-10T02:22:35.171Z,7.37
2019-01-10T02:25:04.572Z,8.37
2019-01-10T02:27:33.298Z,7.97
2019-01-10T02:30:01.865Z,7.70
2019-01-10T02:32:30.452Z,7.70
2019-01-10T02:34:59.386Z,7.80
2019-01-10T02:37:28.730Z,7.80
2019-01-10T02:39:57.237Z,8.20
2019-01-10T02:42:26.029Z,7.63
2019-01-10T02:44:54.691Z,8.00
2019-01-10T02:47:23.388Z,8.23
2019-01-10T02:49:52.093Z,6.70
2019-01-10T02:52:20.762Z,7.23
2019-01-10T02:54:49.027Z,7.47
2019-01-10T02:57:17.734Z,7.53
2019-01-10T02:59:46.403Z,7.40
2019-01-10T03:02:15.092Z,7.77
2019-01-10T03:04:43.790Z,7.70
2019-01-10T03:07:12.464Z,8.37
2019-01-10T03:09:46.686Z,7.97
2019-01-10T03:12:15.356Z,7.80
2019-01-10T03:14:43.852Z,8.27
2019-01-10T03:17:12.566Z,7.90
2019-01-10T03:19:41.213Z,7.73
2019-01-10T03:22:09.894Z,7.90
2019-01-10T03:24:38.704Z,7.93
2019-01-10T03:27:07.271Z,7.57
2019-01-10T03:29:35.547Z,7.13
2019-01-10T03:32:04.172Z,7.67
2019-01-10T03:34:32.713Z,7.27
2019-01-10T03:37:19.651Z,7.53
2019-01-10T03:39:48.108Z,8.03
2019-01-10T03:42:16.790Z,7.97
2019-01-10T03:44:45.553Z,8.20
2019-01-10T03:47:14.634Z,8.60
2019-01-10T03:49:42.957Z,8.40
2019-01-10T03:52:11.764Z,9.47
2019-01-10T03:54:40.428Z,9.00
2019-01-10T03:57:08.703Z,9.53
2019-01-10T03:59:37.413Z,8.70
2019-01-10T04:02:06.063Z,8.73
2019-01-10T04:04:34.753Z,9.20
2019-01-10T04:07:03.451Z,8.60
2019-01-10T04:09:32.127Z,8.60
2019-01-10T04:12:00.611Z,8.63
2019-01-10T04:14:29.011Z,8.33
2019-01-10T04:16:57.784Z,9.03
2019-01-10T04:19:26.452Z,8.20
2019-01-10T04:21:54.965Z,8.60
2019-01-10T04:24:23.627Z,8.50
2019-01-10T04:26:52.107Z,8.00
2019-01-10T04:29:20.507Z,8.30
2019-01-10T04:31:49.272Z,8.87
2019-01-10T04:34:17.959Z,7.90
2019-01-10T04:36:46.663Z,8.83
2019-01-10T04:39:15.325Z,8.27
2019-01-10T04:41:44.011Z,8.07
2019-01-10T04:44:12.716Z,8.07
2019-01-10T04:46:41.382Z,7.67
2019-01-10T04:49:10.075Z,7.60
2019-01-10T04:51:38.367Z,7.77
2019-01-10T04:54:07.037Z,7.97
2019-01-10T04:56:37.428Z,7.70
2019-01-10T04:59:06.060Z,7.60
2019-01-10T05:01:34.927Z,6.97
2019-01-10T05:04:03.614Z,7.37
2019-01-10T05:06:32.323Z,7.43
2019-01-10T05:09:00.983Z,7.27
2019-01-10T05:11:29.982Z,7.00
2019-01-10T05:13:59.922Z,6.93
2019-01-10T05:16:28.681Z,7.60
2019-01-10T05:18:57.467Z,7.90
2019-01-10T05:21:26.070Z,8.17
2019-01-10T05:23:54.744Z,7.87
2019-01-10T05:26:23.429Z,7.70
2019-01-10T05:28:51.952Z,7.33
2019-01-10T05:31:20.599Z,7.37
2019-01-10T05:33:49.287Z,8.13
2019-01-10T05:36:17.808Z,8.20
2019-01-10T05:38:46.655Z,6.90
2019-01-10T05:41:15.345Z,7.27
2019-01-10T05:43:44.055Z,7.80
2019-01-10T05:46:12.712Z,8.93
2019-01-10T05:48:47.083Z,7.43
2019-01-10T05:51:12.255Z,7.30
2019-01-10T05:53:41.429Z,7.73
2019-01-10T05:56:15.224Z,7.37
2019-01-10T05:58:40.357Z,7.53
2019-01-10T06:01:08.714Z,8.03
2019-01-10T06:03:37.402Z,7.90
2019-01-10T06:06:06.116Z,7.33
2019-01-10T06:08:35.434Z,7.47
2019-01-10T06:11:03.773Z,8.00
2019-01-10T06:13:32.375Z,8.00
2019-01-10T06:16:06.267Z,8.00
2019-01-10T06:18:34.576Z,9.83
2019-01-10T06:21:02.710Z,10.60
2019-01-10T06:23:31.391Z,9.47
2019-01-10T06:25:59.903Z,9.40
2019-01-10T06:28:28.359Z,7.40
2019-01-10T06:30:57.040Z,7.80
2019-01-10T06:33:25.769Z,8.53
2019-01-10T06:36:04.748Z,9.73
2019-01-10T06:38:34.497Z,12.53
2019-01-10T06:41:04.019Z,10.30
2019-01-10T06:43:32.561Z,10.20
2019-01-10T06:46:03.528Z,9.17
2019-01-10T06:48:33.976Z,8.57
2019-01-10T06:51:02.930Z,7.70
2019-01-10T06:53:32.024Z,9.77
2019-01-10T06:56:00.281Z,11.87
2019-01-10T06:58:28.968Z,12.27
2019-01-10T07:00:57.690Z,16.73
2019-01-10T07:03:26.340Z,11.83
2019-01-10T07:05:55.019Z,11.33
2019-01-10T07:08:23.330Z,13.17
2019-01-10T07:10:51.968Z,13.50
2019-01-10T07:13:20.672Z,11.47
2019-01-10T07:15:49.433Z,13.53
2019-01-10T07:18:19.477Z,12.50
2019-01-10T07:20:47.960Z,11.93
2019-01-10T07:23:16.355Z,10.23
2019-01-10T07:25:44.979Z,12.13
2019-01-10T07:28:26.433Z,9.57
2019-01-10T07:30:58.570Z,9.70
2019-01-10T07:33:27.372Z,9.13
2019-01-10T07:35:57.286Z,8.57
2019-01-10T07:38:25.678Z,9.23
2019-01-10T07:40:54.593Z,8.10
2019-01-10T07:43:26.813Z,7.73
2019-01-10T07:45:55.617Z,8.27
2019-01-10T07:48:24.379Z,9.03
2019-01-10T07:50:52.955Z,8.90
2019-01-10T07:53:21.575Z,8.50
2019-01-10T07:55:50.231Z,9.10
2019-01-10T07:58:18.924Z,8.77
2019-01-10T08:00:47.228Z,8.50
2019-01-10T08:03:15.875Z,9.50
2019-01-10T08:05:44.576Z,9.77
2019-01-10T08:08:14.367Z,9.03
2019-01-10T08:10:42.766Z,9.33
2019-01-10T08:13:11.429Z,8.90
2019-01-10T08:15:39.929Z,10.13
2019-01-10T08:18:08.298Z,10.47
2019-01-10T08:20:38.479Z,10.97
2019-01-10T08:23:07.287Z,12.07
2019-01-10T08:25:35.679Z,11.73
2019-01-10T08:28:04.459Z,15.13
2019-01-10T08:30:32.848Z,19.33
2019-01-10T08:33:01.538Z,20.37
2019-01-10T08:35:30.525Z,19.00
2019-01-10T08:37:59.647Z,21.17
2019-01-10T08:40:27.993Z,29.07
2019-01-10T08:42:56.374Z,22.97
2019-01-10T08:45:24.980Z,26.40
2019-01-10T08:47:53.628Z,25.00
2019-01-10T08:50:24.385Z,30.33
2019-01-10T08:52:54.019Z,29.57
2019-01-10T08:55:22.947Z,30.63
2019-01-10T08:57:51.463Z,24.70
2019-01-10T09:00:21.716Z,22.07
2019-01-10T09:02:50.270Z,19.40
2019-01-10T09:05:18.955Z,16.03
2019-01-10T09:07:47.643Z,13.73
2019-01-10T09:10:21.936Z,14.17
2019-01-10T09:12:50.562Z,13.10
2019-01-10T09:15:23.606Z,12.90
2019-01-10T09:17:49.244Z,13.07
2019-01-10T09:20:18.473Z,15.87
2019-01-10T09:22:48.329Z,15.27
2019-01-10T09:25:17.873Z,14.47
2019-01-10T09:27:46.554Z,13.87
2019-01-10T09:30:16.806Z,17.20
2019-01-10T09:32:45.339Z,17.67
2019-01-10T09:35:14.047Z,17.53
2019-01-10T09:37:42.710Z,18.30
2019-01-10T09:40:13.892Z,14.77
2019-01-10T09:42:42.547Z,14.40
2019-01-10T09:45:12.883Z,15.20
2019-01-10T09:47:41.686Z,13.07
2019-01-10T09:50:12.994Z,13.73
2019-01-10T09:52:42.635Z,12.23
2019-01-10T09:55:11.501Z,12.73
2019-01-10T09:57:40.181Z,13.30
2019-01-10T10:00:16.175Z,11.03
2019-01-10T10:02:44.681Z,11.40
2019-01-10T10:05:13.110Z,11.10
2019-01-10T10:07:47.658Z,10.53
2019-01-10T10:10:17.246Z,11.00
2019-01-10T10:12:45.719Z,10.30
2019-01-10T10:15:15.003Z,9.23
2019-01-10T10:17:43.591Z,8.80
2019-01-10T10:20:14.830Z,10.13
2019-01-10T10:22:44.073Z,12.40
2019-01-10T10:25:18.692Z,13.43
2019-01-10T10:27:47.074Z,12.03
2019-01-10T10:30:17.489Z,10.90
2019-01-10T10:32:45.960Z,10.40
2019-01-10T10:35:14.662Z,10.30
2019-01-10T10:37:43.333Z,9.47
2019-01-10T10:40:14.152Z,9.30
2019-01-10T10:42:42.970Z,10.47
2019-01-10T10:45:13.894Z,10.70
2019-01-10T10:47:42.274Z,10.13
2019-01-10T10:50:13.954Z,9.20
2019-01-10T10:52:42.879Z,8.63
2019-01-10T10:55:11.691Z,8.00
2019-01-10T10:57:40.424Z,7.70
2019-01-10T11:00:12.766Z,7.50
2019-01-10T11:02:41.283Z,8.00
2019-01-10T11:05:10.379Z,7.60
2019-01-10T11:07:39.288Z,7.23
2019-01-10T11:10:09.982Z,8.20
2019-01-10T11:12:38.467Z,7.97
2019-01-10T11:15:08.005Z,8.50
2019-01-10T11:17:36.409Z,8.70
2019-01-10T11:20:07.921Z,7.40
2019-01-10T11:22:36.530Z,7.00
2019-01-10T11:25:07.667Z,20.93
2019-01-10T11:27:39.845Z,10.30
2019-01-10T11:30:10.772Z,8.20
2019-01-10T11:32:39.429Z,11.97
2019-01-10T11:35:08.144Z,23.07
2019-01-10T11:37:36.815Z,26.27
2019-01-10T11:40:07.401Z,6.00
2019-01-10T11:42:35.832Z,8.70
2019-01-10T11:45:08.528Z,5.63
2019-01-10T11:47:37.725Z,6.10
2019-01-10T11:50:07.420Z,6.70
2019-01-10T11:52:36.090Z,5.47
2019-01-10T11:55:05.318Z,5.70
2019-01-10T11:57:33.885Z,6.70
2019-01-10T12:00:04.426Z,6.50
2019-01-10T12:02:36.440Z,6.23
2019-01-10T12:05:03.731Z,5.63
2019-01-10T12:07:32.315Z,6.50
2019-01-10T12:10:01.747Z,6.17
2019-01-10T12:12:30.472Z,6.37
2019-01-10T12:14:58.869Z,4.90
2019-01-10T12:17:27.473Z,5.83
2019-01-10T12:19:56.127Z,6.40
2019-01-10T12:22:24.401Z,6.37
2019-01-10T12:24:53.134Z,6.40
2019-01-10T12:27:21.381Z,8.77
2019-01-10T12:29:53.443Z,6.00
2019-01-10T12:32:21.951Z,8.00
2019-01-10T12:34:50.688Z,5.60
2019-01-10T12:37:19.683Z,5.70
2019-01-10T12:39:48.022Z,5.50
2019-01-10T12:42:16.461Z,5.67
2019-01-10T12:44:45.246Z,5.60
2019-01-10T12:47:13.971Z,5.70
2019-01-10T12:49:42.838Z,5.40
2019-01-10T12:52:11.519Z,5.83
2019-01-10T12:54:40.428Z,5.83
2019-01-10T12:57:09.082Z,6.00
2019-01-10T12:59:37.362Z,5.37
2019-01-10T13:02:05.993Z,5.13
2019-01-10T13:04:34.585Z,5.10
2019-01-10T13:07:03.134Z,5.30
2019-01-10T13:09:31.943Z,5.37
2019-01-10T13:12:00.600Z,5.70
2019-01-10T13:14:29.274Z,5.80
2019-01-10T13:16:58.209Z,5.03
2019-01-10T13:19:27.885Z,5.80
2019-01-10T13:21:56.571Z,4.70
2019-01-10T13:24:24.872Z,4.90
2019-01-10T13:26:53.522Z,5.20
2019-01-10T13:29:22.215Z,5.50
2019-01-10T13:31:51.131Z,5.03
2019-01-10T13:34:19.998Z,5.50
2019-01-10T13:36:48.679Z,5.03
2019-01-10T13:39:17.399Z,5.33
2019-01-10T13:41:46.363Z,4.40
2019-01-10T13:44:14.728Z,4.90
2019-01-10T13:46:43.034Z,4.87
2019-01-10T13:49:11.696Z,5.60
2019-01-10T13:51:40.387Z,4.73
2019-01-10T13:54:09.096Z,4.67
2019-01-10T13:56:37.556Z,4.50
2019-01-10T13:59:06.224Z,4.20
2019-01-10T14:01:34.946Z,4.90
2019-01-10T14:04:03.402Z,5.40
2019-01-10T14:06:32.043Z,5.67
2019-01-10T14:09:00.781Z,5.20
2019-01-10T14:11:29.149Z,5.00
2019-01-10T14:13:57.520Z,4.80
2019-01-10T14:16:26.227Z,4.60
2019-01-10T14:18:54.905Z,4.77
2019-01-10T14:21:23.577Z,4.70
2019-01-10T14:23:51.995Z,4.20
2019-01-10T14:26:20.491Z,4.40
2019-01-10T14:28:49.233Z,4.43
2019-01-10T14:31:34.505Z,7.10
2019-01-10T14:34:04.957Z,7.80
2019-01-10T14:36:33.521Z,11.23
2019-01-10T14:39:04.706Z,5.90
2019-01-10T14:41:33.365Z,11.63
2019-01-10T14:44:01.947Z,6.50
2019-01-10T14:46:30.576Z,5.70
2019-01-10T14:48:59.594Z,5.40
2019-01-10T14:51:28.814Z,6.53
2019-01-10T14:53:57.621Z,5.90
2019-01-10T14:56:26.263Z,5.47
2019-01-10T14:58:54.745Z,5.07
2019-01-10T15:01:23.458Z,5.50
2019-01-10T15:03:51.811Z,5.63
2019-01-10T15:06:20.600Z,7.37
2019-01-10T15:08:49.404Z,5.00
2019-01-10T15:11:18.190Z,5.07
2019-01-10T15:13:46.866Z,6.33
2019-01-10T15:16:15.573Z,5.50
2019-01-10T15:18:44.264Z,5.13
2019-01-10T15:21:19.838Z,5.50
2019-01-10T15:23:49.402Z,4.70
2019-01-10T15:26:18.096Z,4.40
2019-01-10T15:28:47.147Z,4.20
2019-01-10T15:31:15.867Z,4.30
2019-01-10T15:33:44.547Z,4.10
2019-01-10T15:36:19.404Z,4.70
2019-01-10T15:38:48.062Z,4.50
2019-01-10T15:41:16.745Z,4.97
2019-01-10T15:43:45.753Z,4.70
2019-01-10T15:46:14.231Z,6.90
2019-01-10T15:48:42.807Z,5.43
2019-01-10T15:51:11.516Z,6.30
2019-01-10T15:53:40.175Z,5.20
2019-01-10T15:56:08.863Z,5.50
2019-01-10T15:58:37.566Z,4.87
2019-01-10T16:01:06.588Z,4.90
2019-01-10T16:03:35.331Z,5.03
2019-01-10T16:06:04.235Z,5.60
2019-01-10T16:08:33.096Z,6.90
2019-01-10T16:11:01.913Z,16.37
2019-01-10T16:13:30.418Z,24.53
2019-01-10T16:15:59.175Z,18.77
2019-01-10T16:18:27.955Z,13.20
2019-01-10T16:20:56.560Z,7.90
2019-01-10T16:23:25.145Z,8.77
2019-01-10T16:25:53.727Z,8.67
2019-01-10T16:28:22.638Z,8.67
2019-01-10T16:30:51.495Z,9.63
2019-01-10T16:33:20.182Z,9.07
2019-01-10T16:35:48.893Z,10.17
2019-01-10T16:38:24.090Z,10.37
2019-01-10T16:40:52.804Z,10.03
2019-01-10T16:43:21.509Z,9.10
2019-01-10T16:45:50.050Z,15.33
2019-01-10T16:48:18.877Z,13.57
2019-01-10T16:50:47.439Z,20.13
2019-01-10T16:53:16.215Z,20.60
2019-01-10T16:55:45.669Z,17.03
2019-01-10T16:58:14.405Z,14.27
2019-01-10T17:00:44.290Z,16.53
2019-01-10T17:03:12.737Z,18.77
2019-01-10T17:05:41.291Z,16.80
2019-01-10T17:08:10.160Z,20.40
2019-01-10T17:10:39.926Z,22.60
2019-01-10T17:13:08.611Z,18.37
2019-01-10T17:15:37.613Z,11.53
2019-01-10T17:18:06.489Z,9.97
2019-01-10T17:20:35.352Z,8.93
2019-01-10T17:23:04.136Z,8.73
2019-01-10T17:25:33.573Z,8.30
2019-01-10T17:28:02.320Z,8.40
2019-01-10T17:30:31.410Z,8.30
2019-01-10T17:33:00.531Z,9.17
2019-01-10T17:35:31.003Z,9.80
2019-01-10T17:38:00.679Z,11.37
2019-01-10T17:40:35.165Z,10.50
2019-01-10T17:43:04.725Z,10.50
2019-01-10T17:45:34.516Z,10.93
2019-01-10T17:48:03.815Z,20.10
2019-01-10T17:50:32.597Z,26.37
2019-01-10T17:53:01.260Z,24.60
2019-01-10T17:55:29.922Z,23.63
2019-01-10T17:57:58.591Z,22.47
2019-01-10T18:00:29.130Z,18.47
2019-01-10T18:02:57.860Z,17.17
2019-01-10T18:05:26.948Z,16.07
2019-01-10T18:07:56.179Z,19.60
2019-01-10T18:10:24.942Z,20.63
2019-01-10T18:12:53.427Z,26.23
2019-01-10T18:15:23.254Z,24.53
2019-01-10T18:18:01.336Z,21.73
2019-01-10T18:20:38.873Z,21.87
2019-01-10T18:23:08.962Z,27.60
2019-01-10T18:25:37.887Z,22.23
2019-01-10T18:28:06.404Z,24.17
2019-01-10T18:30:34.999Z,28.97
2019-01-10T18:33:04.454Z,30.83
2019-01-10T18:35:33.807Z,31.90
2019-01-10T18:38:02.614Z,33.30
2019-01-10T18:40:31.473Z,37.07
2019-01-10T18:43:00.374Z,37.57
2019-01-10T18:45:30.911Z,43.57
2019-01-10T18:48:00.087Z,44.83
2019-01-10T18:50:28.655Z,45.13
2019-01-10T18:52:58.109Z,37.60
2019-01-10T18:55:26.638Z,35.63
2019-01-10T18:57:55.349Z,40.30
2019-01-10T19:00:28.159Z,39.10
2019-01-10T19:02:57.536Z,42.03
2019-01-10T19:05:28.581Z,47.20
2019-01-10T19:07:59.290Z,46.47
2019-01-10T19:10:27.971Z,39.50
2019-01-10T19:13:00.561Z,33.07
2019-01-10T19:15:29.234Z,31.23
2019-01-10T19:18:03.280Z,28.17
2019-01-10T19:20:29.910Z,25.10
2019-01-10T19:23:02.259Z,24.77
2019-01-10T19:25:31.290Z,23.90
2019-01-10T19:27:59.843Z,22.30
2019-01-10T19:30:34.224Z,20.80
2019-01-10T19:33:03.237Z,19.70
2019-01-10T19:35:31.625Z,24.47
2019-01-10T19:38:00.570Z,32.13
2019-01-10T19:40:30.258Z,34.90
2019-01-10T19:42:59.101Z,28.83
2019-01-10T19:45:27.839Z,29.37
2019-01-10T19:47:56.285Z,33.93
2019-01-10T19:50:26.105Z,36.47
2019-01-10T19:52:55.232Z,53.30
2019-01-10T19:55:24.177Z,39.43
2019-01-10T19:57:53.072Z,34.67
2019-01-10T20:00:33.923Z,29.53
2019-01-10T20:03:02.873Z,29.53
2019-01-10T20:05:31.791Z,31.23
2019-01-10T20:08:00.374Z,28.43
2019-01-10T20:10:28.953Z,26.57
2019-01-10T20:12:57.657Z,23.50
2019-01-10T20:15:27.055Z,21.97
2019-01-10T20:17:56.370Z,23.30
2019-01-10T20:20:33.306Z,26.07
2019-01-10T20:23:01.595Z,26.83
2019-01-10T20:25:30.796Z,26.27
2019-01-10T20:27:59.428Z,33.10
2019-01-10T20:30:27.914Z,30.70
2019-01-10T20:32:56.828Z,28.23
2019-01-10T20:35:25.830Z,27.97
2019-01-10T20:37:54.540Z,29.40
2019-01-10T20:40:23.245Z,26.67
2019-01-10T20:42:53.324Z,24.37
2019-01-10T20:45:22.013Z,24.30
2019-01-10T20:47:50.512Z,25.83
2019-01-10T20:50:19.671Z,24.60
2019-01-10T20:52:48.233Z,24.80
2019-01-10T20:55:17.005Z,21.97
2019-01-10T20:57:46.467Z,21.37
2019-01-10T21:00:18.524Z,20.77
2019-01-10T21:02:47.399Z,21.10
2019-01-10T21:05:16.103Z,21.50
2019-01-10T21:07:47.122Z,22.80
2019-01-10T21:10:16.200Z,23.37
2019-01-10T21:12:45.538Z,25.93
2019-01-10T21:15:18.859Z,26.27
2019-01-10T21:17:49.091Z,24.47
2019-01-10T21:20:18.527Z,23.63
2019-01-10T21:22:48.855Z,24.07
2019-01-10T21:25:18.231Z,24.17
2019-01-10T21:27:47.037Z,22.33
2019-01-10T21:30:20.698Z,24.97
2019-01-10T21:32:49.892Z,25.80
2019-01-10T21:35:19.553Z,25.30
2019-01-10T21:37:49.033Z,28.00
2019-01-10T21:40:19.439Z,28.07
2019-01-10T21:42:49.362Z,29.00
2019-01-10T21:45:19.205Z,28.30
2019-01-10T21:47:54.609Z,29.80
2019-01-10T21:50:25.189Z,31.03
2019-01-10T21:52:54.130Z,31.43
2019-01-10T21:55:22.489Z,30.97
2019-01-10T21:57:51.090Z,30.13
2019-01-10T22:00:22.830Z,32.70
2019-01-10T22:02:51.419Z,33.97
2019-01-10T22:05:20.625Z,34.27
2019-01-10T22:07:49.188Z,36.90
2019-01-10T22:10:18.343Z,36.53
2019-01-10T22:12:48.304Z,36.20
2019-01-10T22:15:16.792Z,36.40
2019-01-10T22:17:45.468Z,35.17
2019-01-10T22:20:14.575Z,34.30
2019-01-10T22:22:43.331Z,32.07
2019-01-10T22:25:11.937Z,32.10
2019-01-10T22:27:40.294Z,32.40
2019-01-10T22:30:11.877Z,32.63
2019-01-10T22:32:40.550Z,34.00
2019-01-10T22:35:11.158Z,32.87
2019-01-10T22:37:39.435Z,31.90
2019-01-10T22:40:10.155Z,31.33
2019-01-10T22:42:38.749Z,30.33
2019-01-10T22:45:07.168Z,29.20
2019-01-10T22:47:38.006Z,29.83
2019-01-10T22:50:07.373Z,30.73
2019-01-10T22:52:35.954Z,30.20
2019-01-10T22:55:05.286Z,30.47
2019-01-10T22:57:33.617Z,27.53
2019-01-10T23:00:02.298Z,27.93
2019-01-10T23:02:31.285Z,27.10
2019-01-10T23:04:59.879Z,27.40
2019-01-10T23:07:28.457Z,25.47
2019-01-10T23:10:08.724Z,25.67
2019-01-10T23:12:37.094Z,26.37
2019-01-10T23:15:29.451Z,28.07
2019-01-10T23:17:58.015Z,34.70
2019-01-10T23:20:26.708Z,33.13
2019-01-10T23:23:01.166Z,32.20
2019-01-10T23:25:29.826Z,30.83
2019-01-10T23:27:58.510Z,28.47
2019-01-10T23:30:49.651Z,28.73
2019-01-10T23:33:18.706Z,25.97
2019-01-10T23:35:48.226Z,25.20
2019-01-10T23:38:22.318Z,25.03
2019-01-10T23:40:50.893Z,24.83
2019-01-10T23:43:19.303Z,24.07
2019-01-10T23:45:48.012Z,23.03
2019-01-10T23:48:16.462Z,23.03
2019-01-10T23:50:44.843Z,23.00
2019-01-10T23:53:13.633Z,21.73
2019-01-10T23:55:42.097Z,21.27
2019-01-10T23:58:10.776Z,24.47
